Airfield :
LOGIN :

Register | Disclaimer

   EN    FR    IT 

 










Legend :    VFR   Marginal VFR   IFR   Intensive IFR   Very Intensive IFR
Visi :
Ceiling :
>= 8 km
>= 3000ft
5 to 8 km
1000 to 3000 ft
1500m to 5 km
500 to 1000 ft
800 to 1500m
200 to 500 ft
< 800m
< 200 ft
Symbols :   Thunderstorms  Fog  Heavy snow  Heavy precipitations  Wind > 20 kt
SIGMETs :     Misc.  Thunderstorms  Icing  Turbulence  Mountain Waves  Volcanic Ashes






- Airport Elevation : 101 ft
- IATA code : GLO


EGBJ - Gloucestershire

CURRENT METAR :
  • 101020Z 19017G28KT 8000 -RA FEW010 BKN020 10/09 Q1010

EXPIRED METARs :
  • 100950Z 19015G25KT 9999 -RA FEW010 BKN020 10/08 Q1011
  • 100920Z 19016KT 160V220 9999 -RA FEW010 BKN020 10/08 Q1011
  • 100850Z 19015G26KT 9999 VCSH FEW010 BKN020 10/08 Q1012
  • 100820Z 18018KT 9999 FEW020 09/07 Q1013

TAF TAF EGBJ
Valid from the 10 at 09:00 until the 10 at 18:00 UTC


100807Z 1009/1018 19015KT 9999 SCT008 BKN020
BECMG 1009/1011 20020G30KT
PROB30
TEMPO 1009/1011 6000 RA
TEMPO 1011/1018 6000 RA BKN008
PROB40
TEMPO 1011/1018 20025G40KT
PROB30
TEMPO 1016/1018 3000 +RA BKN004



MET'MAP, your aeronautical weather chart ! - Copyright ORBIFLY December 2007 - Disclaimer

ORBIFLY MET'MAP TEAM :

Programming & Development : Alexandra Zaïnal
Concept & original design : Baudouin d'Aumeries
Assistance for programming : Marc-Olivier Méhu
Technical & hardware support : Manuel Goepfert

Contact : metmap@orbifly.com




SOURCES & CREDITS :

   NOAA